createdAt,value
2022-09-15T00:02:40.434Z,1.55
2022-09-15T00:05:25.599Z,1.70
2022-09-15T00:08:13.069Z,1.70
2022-09-15T00:11:07.509Z,1.67
2022-09-15T00:13:54.140Z,1.60
2022-09-15T00:16:39.779Z,1.60
2022-09-15T00:19:25.021Z,1.90
2022-09-15T00:22:10.557Z,1.60
2022-09-15T00:24:55.969Z,1.50
2022-09-15T00:27:41.624Z,1.33
2022-09-15T00:30:27.941Z,1.50
2022-09-15T00:33:14.576Z,1.50
2022-09-15T00:36:04.040Z,1.40
2022-09-15T00:38:49.677Z,1.38
2022-09-15T00:41:35.263Z,1.30
2022-09-15T00:44:20.662Z,1.30
2022-09-15T00:47:19.304Z,2.13
2022-09-15T00:50:10.150Z,1.45
2022-09-15T00:53:02.090Z,1.20
2022-09-15T00:55:49.369Z,1.23
2022-09-15T00:58:39.995Z,1.40
2022-09-15T01:01:28.102Z,1.20
2022-09-15T01:04:14.829Z,1.10
2022-09-15T01:07:05.219Z,1.20
2022-09-15T01:09:57.825Z,1.08
2022-09-15T01:12:43.192Z,1.20
2022-09-15T01:15:49.920Z,1.20
2022-09-15T01:19:04.806Z,1.30
2022-09-15T01:22:05.116Z,1.13
2022-09-15T01:24:56.274Z,1.30
2022-09-15T01:28:00.640Z,1.20
2022-09-15T01:30:59.797Z,1.10
2022-09-15T01:33:55.279Z,1.20
2022-09-15T01:37:02.022Z,1.10
2022-09-15T01:39:50.151Z,2.30
2022-09-15T01:42:37.230Z,1.02
2022-09-15T01:45:29.155Z,1.17
2022-09-15T01:48:18.442Z,1.15
2022-09-15T01:51:06.554Z,1.48
2022-09-15T01:53:54.569Z,1.10
2022-09-15T01:56:40.993Z,1.30
2022-09-15T01:59:26.252Z,1.20
2022-09-15T02:02:18.142Z,1.10
2022-09-15T02:05:20.236Z,1.40
2022-09-15T02:08:12.919Z,1.52
2022-09-15T02:11:30.427Z,1.20
2022-09-15T02:14:43.687Z,1.30
2022-09-15T02:17:32.613Z,1.30
2022-09-15T02:20:38.944Z,1.05
2022-09-15T02:23:32.920Z,1.30
2022-09-15T02:26:23.122Z,1.20
2022-09-15T02:29:13.305Z,1.05
2022-09-15T02:32:06.887Z,1.23
2022-09-15T02:34:55.505Z,0.95
2022-09-15T02:37:41.365Z,1.13
2022-09-15T02:40:28.891Z,1.23
2022-09-15T02:43:17.443Z,1.08
2022-09-15T02:46:03.336Z,1.20
2022-09-15T02:48:48.746Z,1.10
2022-09-15T02:51:34.172Z,1.95
2022-09-15T02:54:19.837Z,1.23
2022-09-15T02:57:05.349Z,1.08
2022-09-15T03:00:09.124Z,1.10
2022-09-15T03:02:56.090Z,1.10
2022-09-15T03:05:41.608Z,1.30
2022-09-15T03:08:28.729Z,1.13
2022-09-15T03:11:15.538Z,1.00
2022-09-15T03:14:03.852Z,1.00
2022-09-15T03:16:49.350Z,1.27
2022-09-15T03:19:34.619Z,1.38
2022-09-15T03:22:20.379Z,1.10
2022-09-15T03:25:07.395Z,1.88
2022-09-15T03:27:52.718Z,1.13
2022-09-15T03:30:38.289Z,0.90
2022-09-15T03:33:24.402Z,0.82
2022-09-15T03:36:09.996Z,0.77
2022-09-15T03:38:58.919Z,0.90
2022-09-15T03:41:44.421Z,0.93
2022-09-15T03:44:30.028Z,0.98
2022-09-15T03:47:15.095Z,1.00
2022-09-15T03:50:00.398Z,1.00
2022-09-15T03:52:46.545Z,1.02
2022-09-15T03:55:32.409Z,1.00
2022-09-15T03:58:18.715Z,0.90
2022-09-15T04:01:04.109Z,1.00
2022-09-15T04:03:51.321Z,1.30
2022-09-15T04:06:37.155Z,1.10
2022-09-15T04:09:22.721Z,1.98
2022-09-15T04:12:08.001Z,0.90
2022-09-15T04:14:54.126Z,1.15
2022-09-15T04:17:39.365Z,1.17
2022-09-15T04:20:24.901Z,1.00
2022-09-15T04:23:11.808Z,1.00
2022-09-15T04:25:58.608Z,1.20
2022-09-15T04:28:44.114Z,1.20
2022-09-15T04:31:30.105Z,1.10
2022-09-15T04:34:15.608Z,1.17
2022-09-15T04:37:01.260Z,1.30
2022-09-15T04:39:46.736Z,1.15
2022-09-15T04:42:32.175Z,1.10
2022-09-15T04:45:17.679Z,1.10
2022-09-15T04:48:03.157Z,1.02
2022-09-15T04:50:48.680Z,1.00
2022-09-15T04:53:35.692Z,1.00
2022-09-15T04:56:23.973Z,1.00
2022-09-15T04:59:14.650Z,0.90
2022-09-15T05:02:00.138Z,1.00
2022-09-15T05:04:47.582Z,0.80
2022-09-15T05:07:32.818Z,1.10
2022-09-15T05:10:19.564Z,0.90
2022-09-15T05:13:05.456Z,1.00
2022-09-15T05:15:50.881Z,1.20
2022-09-15T05:18:36.294Z,1.00
2022-09-15T05:21:23.383Z,1.20
2022-09-15T05:24:09.071Z,1.00
2022-09-15T05:26:54.389Z,1.05
2022-09-15T05:29:39.928Z,1.15
2022-09-15T05:32:25.777Z,0.88
2022-09-15T05:35:29.961Z,1.00
2022-09-15T05:38:15.672Z,2.45
2022-09-15T05:41:11.245Z,1.10
2022-09-15T05:43:58.188Z,1.27
2022-09-15T05:46:43.945Z,1.30
2022-09-15T05:49:30.447Z,1.33
2022-09-15T05:52:15.889Z,1.77
2022-09-15T05:55:01.233Z,1.20
2022-09-15T05:57:46.651Z,1.10
2022-09-15T06:00:33.176Z,1.40
2022-09-15T06:03:18.576Z,1.33
2022-09-15T06:06:05.518Z,1.40
2022-09-15T06:08:58.074Z,1.27
2022-09-15T06:11:44.326Z,1.38
2022-09-15T06:14:29.572Z,1.17
2022-09-15T06:17:15.178Z,1.38
2022-09-15T06:20:00.878Z,1.20
2022-09-15T06:22:46.402Z,1.83
2022-09-15T06:25:31.968Z,1.20
2022-09-15T06:28:17.323Z,1.20
2022-09-15T06:31:03.103Z,1.17
2022-09-15T06:33:54.042Z,1.50
2022-09-15T06:36:39.344Z,0.95
2022-09-15T06:39:24.916Z,1.33
2022-09-15T06:42:13.838Z,1.10
2022-09-15T06:44:59.358Z,1.00
2022-09-15T06:47:44.786Z,1.05
2022-09-15T06:50:31.080Z,0.93
2022-09-15T06:53:16.899Z,1.10
2022-09-15T06:56:10.891Z,0.80
2022-09-15T06:58:56.435Z,1.25
2022-09-15T07:01:42.672Z,1.17
2022-09-15T07:04:27.705Z,1.10
2022-09-15T07:07:13.161Z,1.15
2022-09-15T07:09:58.391Z,1.10
2022-09-15T07:12:43.798Z,1.17
2022-09-15T07:15:29.615Z,1.02
2022-09-15T07:18:14.967Z,1.20
2022-09-15T07:21:03.186Z,0.90
2022-09-15T07:23:49.260Z,0.90
2022-09-15T07:26:35.179Z,1.15
2022-09-15T07:29:20.486Z,1.00
2022-09-15T07:32:06.031Z,1.20
2022-09-15T07:34:54.505Z,1.10
2022-09-15T07:37:41.851Z,1.48
2022-09-15T07:40:28.950Z,1.00
2022-09-15T07:43:14.580Z,1.05
2022-09-15T07:46:00.970Z,0.90
2022-09-15T07:48:47.504Z,1.70
2022-09-15T07:51:32.881Z,1.00
2022-09-15T07:54:21.992Z,0.93
2022-09-15T07:57:08.198Z,0.80
2022-09-15T07:59:53.639Z,1.13
2022-09-15T08:02:39.198Z,1.10
2022-09-15T08:05:28.052Z,0.88
2022-09-15T08:08:13.396Z,1.00
2022-09-15T08:10:58.817Z,0.80
2022-09-15T08:13:45.304Z,0.80
2022-09-15T08:16:30.685Z,1.00
2022-09-15T08:19:16.196Z,1.00
2022-09-15T08:22:02.461Z,0.90
2022-09-15T08:24:48.100Z,0.80
2022-09-15T08:27:33.294Z,0.85
2022-09-15T08:30:19.190Z,0.85
2022-09-15T08:33:04.561Z,0.70
2022-09-15T08:35:50.099Z,0.63
2022-09-15T08:38:35.643Z,0.60
2022-09-15T08:41:29.031Z,0.98
2022-09-15T08:44:36.056Z,0.70
2022-09-15T08:47:31.746Z,0.65
2022-09-15T08:50:44.873Z,0.80
2022-09-15T08:53:34.864Z,0.70
2022-09-15T08:56:20.991Z,0.80
2022-09-15T08:59:08.741Z,0.50
2022-09-15T09:02:12.227Z,0.80
2022-09-15T09:05:05.409Z,0.63
2022-09-15T09:08:09.565Z,0.50
2022-09-15T09:11:14.753Z,0.60
2022-09-15T09:14:03.657Z,0.52
2022-09-15T09:17:16.608Z,0.45
2022-09-15T09:20:25.809Z,0.80
2022-09-15T09:23:15.652Z,0.50
2022-09-15T09:26:08.612Z,0.60
2022-09-15T09:29:00.160Z,0.57
2022-09-15T09:31:50.925Z,0.80
2022-09-15T09:34:47.845Z,0.70
2022-09-15T09:37:33.860Z,0.52
2022-09-15T09:40:20.141Z,0.70
2022-09-15T09:43:05.371Z,0.80
2022-09-15T09:45:51.864Z,0.70
2022-09-15T09:48:38.023Z,0.50
2022-09-15T09:51:36.146Z,0.57
2022-09-15T09:54:25.024Z,0.68
2022-09-15T09:57:13.164Z,0.70
2022-09-15T09:59:58.785Z,0.70
2022-09-15T10:02:48.014Z,0.82
2022-09-15T10:05:33.288Z,0.80
2022-09-15T10:08:20.555Z,0.80
2022-09-15T10:11:10.184Z,0.73
2022-09-15T10:13:56.493Z,0.60
2022-09-15T10:16:41.838Z,0.60
2022-09-15T10:19:30.352Z,0.70
2022-09-15T10:22:34.487Z,0.90
2022-09-15T10:25:19.883Z,0.70
2022-09-15T10:28:19.810Z,0.77
2022-09-15T10:31:10.885Z,1.00
2022-09-15T10:33:56.294Z,0.60
2022-09-15T10:36:42.195Z,0.90
2022-09-15T10:39:47.003Z,2.25
2022-09-15T10:42:50.814Z,0.90
2022-09-15T10:45:40.543Z,0.88
2022-09-15T10:48:37.217Z,0.80
2022-09-15T10:51:28.288Z,1.00
2022-09-15T10:54:38.087Z,1.02
2022-09-15T10:58:02.817Z,1.00
2022-09-15T11:01:01.529Z,1.00
2022-09-15T11:04:05.143Z,0.80
2022-09-15T11:06:56.132Z,1.00
2022-09-15T11:09:46.383Z,1.10
2022-09-15T11:12:57.739Z,1.77
2022-09-15T11:15:56.805Z,1.63
2022-09-15T11:19:04.666Z,1.20
2022-09-15T11:21:56.168Z,1.20
2022-09-15T11:24:58.796Z,1.15
2022-09-15T11:27:55.196Z,1.10
2022-09-15T11:30:47.926Z,1.20
2022-09-15T11:33:47.483Z,1.50
2022-09-15T11:36:52.206Z,1.20
2022-09-15T11:39:53.105Z,1.48
2022-09-15T11:43:00.565Z,1.30
2022-09-15T11:45:50.932Z,0.80
2022-09-15T11:48:43.359Z,0.50
2022-09-15T11:51:32.432Z,0.50
2022-09-15T11:54:27.471Z,0.38
2022-09-15T11:57:32.189Z,0.38
2022-09-15T12:00:17.323Z,0.77
2022-09-15T12:03:16.940Z,0.40
2022-09-15T12:06:15.764Z,0.20
2022-09-15T12:09:04.134Z,0.40
2022-09-15T12:12:00.768Z,0.30
2022-09-15T12:14:49.279Z,0.45
2022-09-15T12:17:54.335Z,0.32
2022-09-15T12:20:58.232Z,0.40
2022-09-15T12:24:08.106Z,0.30
2022-09-15T12:26:53.614Z,0.32
2022-09-15T12:29:42.092Z,0.38
2022-09-15T12:32:29.038Z,0.60
2022-09-15T12:35:17.671Z,0.55
2022-09-15T12:38:02.818Z,0.70
2022-09-15T12:40:57.800Z,0.80
2022-09-15T12:43:55.482Z,0.88
2022-09-15T12:46:41.550Z,1.00
2022-09-15T12:49:35.818Z,1.15
2022-09-15T12:52:23.483Z,1.05
2022-09-15T12:55:20.819Z,1.10
2022-09-15T12:58:15.877Z,1.33
2022-09-15T13:04:04.075Z,1.25
2022-09-15T13:07:18.475Z,1.70
2022-09-15T13:10:09.551Z,1.38
2022-09-15T13:13:11.875Z,1.65
2022-09-15T13:15:57.707Z,1.38
2022-09-15T13:18:45.894Z,1.70
2022-09-15T13:21:33.632Z,1.40
2022-09-15T13:24:35.991Z,1.52
2022-09-15T13:27:47.032Z,2.00
2022-09-15T13:31:00.887Z,2.00
2022-09-15T13:40:49.271Z,1.80
2022-09-15T13:43:49.660Z,1.80
2022-09-15T13:46:50.159Z,1.85
2022-09-15T13:49:38.420Z,1.67
2022-09-15T13:53:02.551Z,1.50
2022-09-15T13:55:48.403Z,1.67
2022-09-15T14:01:40.434Z,1.40
2022-09-15T14:04:30.862Z,2.35
2022-09-15T14:07:23.952Z,1.52
2022-09-15T14:10:23.006Z,1.73
2022-09-15T14:13:14.059Z,1.58
2022-09-15T14:16:01.105Z,1.45
2022-09-15T14:18:47.176Z,1.83
2022-09-15T14:21:34.780Z,1.70
2022-09-15T14:24:29.443Z,1.50
2022-09-15T14:27:28.875Z,1.40
2022-09-15T14:30:19.903Z,1.77
2022-09-15T14:33:05.878Z,1.35
2022-09-15T14:35:51.498Z,1.27
2022-09-15T14:38:36.952Z,1.52
2022-09-15T14:41:22.166Z,1.40
2022-09-15T14:47:34.856Z,1.73
2022-09-15T14:50:21.741Z,1.50
2022-09-15T14:53:12.308Z,1.58
2022-09-15T14:56:12.920Z,1.50
2022-09-15T14:59:02.633Z,1.50
2022-09-15T15:02:11.477Z,1.83
2022-09-15T15:05:10.451Z,1.50
2022-09-15T15:07:56.668Z,1.73
2022-09-15T15:10:42.613Z,1.80
2022-09-15T15:13:28.754Z,1.40
2022-09-15T15:16:22.186Z,1.73
2022-09-15T15:19:46.722Z,1.50
2022-09-15T15:22:32.890Z,1.63
2022-09-15T15:25:32.239Z,1.90
2022-09-15T15:28:35.976Z,1.50
2022-09-15T15:31:24.527Z,1.60
2022-09-15T15:34:24.703Z,1.60
2022-09-15T15:37:24.846Z,1.75
2022-09-15T15:40:18.109Z,1.70
2022-09-15T15:43:03.497Z,1.45
2022-09-15T15:46:12.661Z,1.60
2022-09-15T15:48:58.570Z,1.40
2022-09-15T15:51:43.949Z,1.88
2022-09-15T15:54:29.575Z,1.58
2022-09-15T15:57:27.943Z,1.25
2022-09-15T16:00:44.159Z,1.63
2022-09-15T16:03:29.563Z,1.40
2022-09-15T16:06:15.927Z,1.33
2022-09-15T16:09:02.530Z,1.65
2022-09-15T16:11:48.116Z,2.08
2022-09-15T16:14:33.825Z,1.90
2022-09-15T16:17:18.957Z,2.00
2022-09-15T16:20:04.865Z,1.70
2022-09-15T16:22:50.326Z,1.52
2022-09-15T16:26:00.232Z,1.52
2022-09-15T16:28:45.704Z,1.42
2022-09-15T16:31:32.431Z,1.65
2022-09-15T16:34:18.423Z,1.48
2022-09-15T16:37:04.156Z,2.17
2022-09-15T16:39:52.166Z,3.40
2022-09-15T16:42:37.631Z,3.10
2022-09-15T16:45:29.773Z,3.40
2022-09-15T16:48:15.502Z,3.53
2022-09-15T16:54:17.708Z,3.50
2022-09-15T16:57:03.257Z,2.92
2022-09-15T16:59:48.406Z,4.50
2022-09-15T17:02:34.005Z,6.10
2022-09-15T17:05:38.117Z,5.82
2022-09-15T17:08:29.608Z,3.95
2022-09-15T17:11:17.503Z,2.67
2022-09-15T17:14:03.157Z,2.20
2022-09-15T17:16:52.669Z,2.50
2022-09-15T17:19:37.811Z,2.58
2022-09-15T17:22:23.198Z,2.05
2022-09-15T17:25:18.401Z,2.00
2022-09-15T17:30:56.024Z,1.75
2022-09-15T17:33:41.780Z,2.10
2022-09-15T17:36:27.243Z,2.15
2022-09-15T17:39:12.960Z,2.10
2022-09-15T17:41:58.459Z,2.20
2022-09-15T17:44:43.729Z,2.40
2022-09-15T17:47:30.792Z,2.38
2022-09-15T17:50:18.199Z,2.72
2022-09-15T17:53:09.599Z,2.45
2022-09-15T17:55:57.482Z,2.47
2022-09-15T17:58:43.787Z,2.53
2022-09-15T18:01:29.108Z,2.55
2022-09-15T18:04:14.637Z,2.83
2022-09-15T18:07:00.036Z,2.85
2022-09-15T18:09:45.314Z,2.70
2022-09-15T18:12:31.006Z,2.80
2022-09-15T18:15:21.118Z,2.67
2022-09-15T18:18:08.663Z,2.50
2022-09-15T18:20:56.670Z,4.95
2022-09-15T18:23:42.495Z,13.43
2022-09-15T18:26:27.724Z,2.92
2022-09-15T18:29:13.340Z,3.03
2022-09-15T18:31:59.242Z,4.30
2022-09-15T18:34:44.974Z,3.47
2022-09-15T18:37:30.160Z,3.40
2022-09-15T18:40:18.459Z,3.75
2022-09-15T18:43:04.634Z,3.40
2022-09-15T18:45:50.329Z,4.32
2022-09-15T18:48:35.761Z,2.97
2022-09-15T18:51:29.084Z,2.75
2022-09-15T18:54:19.983Z,3.15
2022-09-15T18:57:05.923Z,3.42
2022-09-15T18:59:51.406Z,4.72
2022-09-15T19:02:37.010Z,4.60
2022-09-15T19:05:22.728Z,3.10
2022-09-15T19:08:09.194Z,4.43
2022-09-15T19:11:00.971Z,3.10
2022-09-15T19:13:46.514Z,4.82
2022-09-15T19:16:53.620Z,5.13
2022-09-15T19:19:38.867Z,3.60
2022-09-15T19:22:25.024Z,4.13
2022-09-15T19:25:12.407Z,3.22
2022-09-15T19:27:57.600Z,3.25
2022-09-15T19:30:43.641Z,3.10
2022-09-15T19:33:29.198Z,2.95
2022-09-15T19:36:28.107Z,3.15
2022-09-15T19:39:14.808Z,2.65
2022-09-15T19:42:00.131Z,4.47
2022-09-15T19:44:46.082Z,3.45
2022-09-15T19:47:31.485Z,3.15
2022-09-15T19:50:17.118Z,3.20
2022-09-15T19:53:02.513Z,2.72
2022-09-15T19:55:52.496Z,3.00
2022-09-15T19:58:37.627Z,2.90
2022-09-15T20:01:25.818Z,3.03
2022-09-15T20:04:12.348Z,3.00
2022-09-15T20:06:58.198Z,2.75
2022-09-15T20:09:44.201Z,2.42
2022-09-15T20:12:30.053Z,2.13
2022-09-15T20:15:15.626Z,3.30
2022-09-15T20:18:01.115Z,2.90
2022-09-15T20:20:46.650Z,3.58
2022-09-15T20:23:32.334Z,3.50
2022-09-15T20:26:18.510Z,3.25
2022-09-15T20:29:04.416Z,3.30
2022-09-15T20:31:49.864Z,3.20
2022-09-15T20:34:35.384Z,3.60
2022-09-15T20:37:22.847Z,3.80
2022-09-15T20:40:09.881Z,3.40
2022-09-15T20:42:55.473Z,3.60
2022-09-15T20:45:41.174Z,3.85
2022-09-15T20:48:32.916Z,3.63
2022-09-15T20:51:22.106Z,3.60
2022-09-15T20:54:07.497Z,3.85
2022-09-15T20:56:53.286Z,3.90
2022-09-15T20:59:38.554Z,4.20
2022-09-15T21:02:24.239Z,3.47
2022-09-15T21:05:10.026Z,3.15
2022-09-15T21:07:55.147Z,3.63
2022-09-15T21:10:44.738Z,4.40
2022-09-15T21:13:31.744Z,3.50
2022-09-15T21:16:20.449Z,3.80
2022-09-15T21:19:07.926Z,3.30
2022-09-15T21:21:54.950Z,3.55
2022-09-15T21:24:40.474Z,3.55
2022-09-15T21:27:29.962Z,3.60
2022-09-15T21:30:15.276Z,3.70
2022-09-15T21:33:01.135Z,4.28
2022-09-15T21:35:49.031Z,4.20
2022-09-15T21:38:36.319Z,4.13
2022-09-15T21:41:24.249Z,4.50
2022-09-15T21:44:09.939Z,3.60
2022-09-15T21:46:55.637Z,3.92
2022-09-15T21:49:41.200Z,4.10
2022-09-15T21:52:27.003Z,4.13
2022-09-15T21:55:12.493Z,4.47
2022-09-15T21:57:58.078Z,4.07
2022-09-15T22:00:43.739Z,4.60
2022-09-15T22:03:30.148Z,3.85
2022-09-15T22:06:16.830Z,3.78
2022-09-15T22:09:05.591Z,3.80
2022-09-15T22:11:51.212Z,3.75
2022-09-15T22:14:36.578Z,4.03
2022-09-15T22:17:22.090Z,4.10
2022-09-15T22:20:09.272Z,3.88
2022-09-15T22:22:56.275Z,4.05
2022-09-15T22:25:41.556Z,4.03
2022-09-15T22:28:27.011Z,4.68
2022-09-15T22:31:14.563Z,4.15
2022-09-15T22:33:59.829Z,4.10
2022-09-15T22:36:44.942Z,3.78
2022-09-15T22:39:57.217Z,4.18
2022-09-15T22:42:35.589Z,4.20
2022-09-15T22:45:20.963Z,4.75
2022-09-15T22:48:06.676Z,4.53
2022-09-15T22:50:52.164Z,4.28
2022-09-15T22:53:38.248Z,4.57
2022-09-15T22:56:26.035Z,4.55
2022-09-15T22:59:11.588Z,4.60
2022-09-15T23:01:56.912Z,4.82
2022-09-15T23:04:42.514Z,4.60
2022-09-15T23:07:28.048Z,5.50
2022-09-15T23:10:13.278Z,4.95
2022-09-15T23:12:59.497Z,4.95
2022-09-15T23:15:45.095Z,4.75
2022-09-15T23:18:31.610Z,4.78
2022-09-15T23:21:17.224Z,5.32
2022-09-15T23:24:02.778Z,4.97
2022-09-15T23:26:48.418Z,5.15
2022-09-15T23:29:33.843Z,4.70
2022-09-15T23:32:19.189Z,5.00
2022-09-15T23:35:05.242Z,4.93
2022-09-15T23:37:51.076Z,5.10
2022-09-15T23:40:36.232Z,5.07
2022-09-15T23:43:21.783Z,5.10
2022-09-15T23:46:07.744Z,5.35
2022-09-15T23:48:53.071Z,5.40
2022-09-15T23:51:38.862Z,6.32
2022-09-15T23:54:24.247Z,6.00
2022-09-15T23:57:11.689Z,5.57
2022-09-15T23:59:57.419Z,4.97
